Hlavní strana
METAR-TAF:

METAR-TAF

Letiště :

Colville Lake, Severozápadní teritoria, Kanada

zeměpisná šířka: 67-01-16N, zeměpisná délka: 126-07-43W, výška: 274 m

Aktuální stav počasí

Zpráva byla vytvořena před 21 minutami, v 23:40 UTC
Severoseverozápadní vítr 5 kt
Teplota -4°C
Vlhkost vzduchu 93%
Tlak 1005 hPa
Viditelnost: 14.5 km
Polojasno ve výšce 800 ft
Oblačno až skoro zataženo ve výšce 15000 ft
Oblačno až skoro zataženo ve výšce 18000 ft

METAR: CYVL 202340Z AUTO 33005KT 9SM SCT008 BKN150 BKN180 M04/M05 A2967 RMK SLP071

Čas: 18:01 (00:01 UTC)


TAF: chybějící

Stav a předpovědi počasí z více než 4 000 letišť (zprávy METAR a TAF).

Červené a žluté tečky na mapě představují dostupné meteorologické stanice.

Když kurzor umístíte na tečku, zobrazí se název stanice.

Pak kliknutím zobrazíte stav a předpověď počasí.

Chcete-li změnit mapu, kliknutím na zelené tlačítko se znaménkem +mapu přiblížíte, kliknutím na zelené tlačítko se znaménkem – mapu oddálíte a kliknutím na zelené šipky přejdete na sousední mapy.


METAR-TAF: